createdAt,value
2018-07-01T00:00:51.212Z,42.53
2018-07-01T00:01:51.263Z,42.72
2018-07-01T00:02:51.264Z,42.91
2018-07-01T00:03:51.296Z,43.40
2018-07-01T00:05:51.214Z,43.11
2018-07-01T00:06:51.009Z,43.47
2018-07-01T00:07:51.214Z,43.28
2018-07-01T00:08:51.280Z,43.37
2018-07-01T00:09:51.312Z,43.49
2018-07-01T00:10:51.328Z,43.30
2018-07-01T00:11:51.712Z,43.40
2018-07-01T00:12:51.216Z,43.20
2018-07-01T00:13:51.162Z,43.11
2018-07-01T00:14:51.219Z,43.11
2018-07-01T00:15:51.217Z,43.18
2018-07-01T00:16:51.213Z,43.47
2018-07-01T00:17:51.237Z,43.49
2018-07-01T00:18:51.221Z,43.47
2018-07-01T00:19:51.715Z,43.37
2018-07-01T00:20:51.314Z,43.66
2018-07-01T00:21:51.025Z,43.47
2018-07-01T00:22:51.023Z,43.66
2018-07-01T00:23:51.024Z,43.76
2018-07-01T00:24:51.223Z,44.05
2018-07-01T00:25:51.295Z,43.57
2018-07-01T00:26:51.241Z,43.95
2018-07-01T00:27:51.216Z,43.66
2018-07-01T00:28:51.263Z,43.28
2018-07-01T00:29:51.272Z,43.76
2018-07-01T00:30:50.988Z,43.95
2018-07-01T00:31:51.239Z,44.05
2018-07-01T00:32:51.264Z,43.97
2018-07-01T00:33:50.994Z,43.47
2018-07-01T00:34:51.264Z,43.47
2018-07-01T00:35:51.233Z,43.47
2018-07-01T00:36:51.007Z,43.95
2018-07-01T00:37:51.243Z,43.95
2018-07-01T00:38:51.019Z,44.14
2018-07-01T00:39:50.999Z,44.05
2018-07-01T00:40:51.006Z,44.05
2018-07-01T00:41:51.226Z,44.24
2018-07-01T00:42:51.251Z,43.95
2018-07-01T00:43:51.224Z,44.34
2018-07-01T00:44:51.243Z,44.05
2018-07-01T00:45:51.224Z,43.68
2018-07-01T00:46:51.020Z,43.95
2018-07-01T00:47:51.231Z,44.24
2018-07-01T00:48:51.252Z,44.72
2018-07-01T00:49:51.233Z,44.72
2018-07-01T00:50:51.223Z,44.53
2018-07-01T00:51:51.279Z,44.53
2018-07-01T00:52:51.261Z,44.53
2018-07-01T00:53:50.730Z,44.89
2018-07-01T00:54:51.229Z,44.53
2018-07-01T00:55:51.302Z,44.62
2018-07-01T00:56:50.645Z,44.62
2018-07-01T00:57:51.233Z,44.89
2018-07-01T00:58:51.253Z,44.72
2018-07-01T00:59:51.236Z,44.72
2018-07-01T01:00:51.273Z,44.91
2018-07-01T01:01:51.151Z,44.91
2018-07-01T01:02:51.361Z,44.53
2018-07-01T01:03:51.233Z,44.82
2018-07-01T01:04:51.274Z,44.89
2018-07-01T01:05:51.027Z,44.79
2018-07-01T01:06:51.276Z,44.79
2018-07-01T01:07:51.270Z,44.82
2018-07-01T01:08:51.272Z,44.82
2018-07-01T01:09:51.009Z,44.62
2018-07-01T01:10:51.279Z,44.91
2018-07-01T01:11:51.088Z,45.08
2018-07-01T01:12:51.005Z,45.56
2018-07-01T01:13:51.269Z,45.47
2018-07-01T01:14:51.069Z,45.56
2018-07-01T01:15:51.250Z,45.56
2018-07-01T01:16:51.059Z,45.95
2018-07-01T01:17:51.060Z,45.76
2018-07-01T01:18:52.325Z,45.76
2018-07-01T01:19:50.639Z,45.56
2018-07-01T01:20:51.238Z,45.85
2018-07-01T01:21:51.236Z,45.37
2018-07-01T01:22:50.739Z,45.47
2018-07-01T01:23:51.284Z,45.20
2018-07-01T01:24:51.186Z,45.20
2018-07-01T01:25:51.237Z,45.29
2018-07-01T01:26:51.737Z,45.01
2018-07-01T01:27:51.244Z,45.59
2018-07-01T01:28:51.275Z,45.28
2018-07-01T01:29:51.250Z,45.28
2018-07-01T01:30:51.241Z,45.47
2018-07-01T01:31:51.241Z,45.85
2018-07-01T01:32:51.279Z,45.66
2018-07-01T01:33:51.285Z,45.56
2018-07-01T01:34:51.283Z,45.76
2018-07-01T01:35:51.285Z,45.95
2018-07-01T01:36:51.243Z,45.92
2018-07-01T01:37:50.994Z,46.04
2018-07-01T01:38:51.290Z,45.95
2018-07-01T01:39:51.289Z,46.21
2018-07-01T01:40:51.288Z,46.41
2018-07-01T01:41:51.288Z,46.59
2018-07-01T01:42:51.289Z,46.79
2018-07-01T01:43:51.288Z,46.79
2018-07-01T01:44:51.293Z,46.59
2018-07-01T01:45:52.243Z,46.79
2018-07-01T01:46:49.601Z,46.98
2018-07-01T01:47:51.294Z,46.50
2018-07-01T01:48:51.982Z,46.69
2018-07-01T01:49:51.253Z,46.69
2018-07-01T01:50:51.292Z,46.69
2018-07-01T01:51:51.029Z,46.69
2018-07-01T01:52:51.028Z,46.59
2018-07-01T01:53:50.965Z,46.72
2018-07-01T01:54:51.239Z,46.59
2018-07-01T01:55:53.246Z,46.59
2018-07-01T01:56:51.250Z,46.69
2018-07-01T01:57:51.247Z,46.79
2018-07-01T01:58:51.239Z,47.17
2018-07-01T01:59:53.094Z,47.53
2018-07-01T02:00:51.249Z,47.27
2018-07-01T02:01:51.250Z,47.27
2018-07-01T02:02:51.295Z,47.36
2018-07-01T02:03:51.079Z,46.98
2018-07-01T02:04:51.009Z,47.08
2018-07-01T02:05:51.291Z,47.36
2018-07-01T02:06:51.301Z,47.53
2018-07-01T02:07:51.250Z,47.53
2018-07-01T02:08:51.253Z,48.02
2018-07-01T02:09:51.298Z,47.56
2018-07-01T02:10:51.311Z,47.44
2018-07-01T02:11:51.254Z,47.63
2018-07-01T02:12:51.320Z,47.82
2018-07-01T02:13:50.760Z,47.63
2018-07-01T02:14:51.253Z,47.63
2018-07-01T02:15:51.300Z,47.92
2018-07-01T02:16:51.300Z,47.72
2018-07-01T02:17:51.260Z,48.11
2018-07-01T02:18:51.296Z,48.02
2018-07-01T02:19:51.311Z,48.11
2018-07-01T02:20:51.796Z,48.21
2018-07-01T02:21:51.339Z,48.11
2018-07-01T02:22:50.758Z,48.59
2018-07-01T02:23:51.295Z,48.97
2018-07-01T02:24:51.086Z,48.69
2018-07-01T02:25:51.304Z,48.59
2018-07-01T02:26:51.309Z,48.88
2018-07-01T02:27:51.296Z,48.97
2018-07-01T02:28:50.763Z,48.59
2018-07-01T02:29:51.044Z,49.84
2018-07-01T02:30:51.259Z,49.74
2018-07-01T02:31:50.724Z,49.17
2018-07-01T02:32:51.264Z,49.26
2018-07-01T02:33:51.270Z,49.07
2018-07-01T02:34:51.307Z,48.97
2018-07-01T02:35:51.067Z,48.69
2018-07-01T02:36:51.306Z,49.07
2018-07-01T02:37:51.303Z,48.95
2018-07-01T02:38:50.684Z,49.05
2018-07-01T02:39:51.304Z,49.26
2018-07-01T02:40:51.308Z,49.52
2018-07-01T02:41:51.303Z,49.43
2018-07-01T02:42:51.271Z,49.74
2018-07-01T02:43:51.031Z,49.84
2018-07-01T02:44:51.080Z,49.65
2018-07-01T02:45:51.306Z,49.93
2018-07-01T02:46:51.267Z,49.24
2018-07-01T02:47:51.256Z,49.82
2018-07-01T02:48:51.331Z,49.65
2018-07-01T02:49:51.320Z,49.74
2018-07-01T02:50:50.757Z,49.52
2018-07-01T02:51:51.292Z,49.43
2018-07-01T02:52:51.273Z,49.46
2018-07-01T02:53:50.820Z,50.01
2018-07-01T02:54:51.272Z,49.52
2018-07-01T02:55:51.282Z,50.29
2018-07-01T02:56:51.038Z,50.20
2018-07-01T02:57:51.307Z,49.62
2018-07-01T02:58:51.273Z,49.55
2018-07-01T02:59:51.259Z,49.52
2018-07-01T03:00:51.316Z,49.62
2018-07-01T03:01:51.307Z,50.49
2018-07-01T03:02:51.029Z,50.01
2018-07-01T03:03:51.275Z,50.10
2018-07-01T03:04:51.322Z,50.01
2018-07-01T03:05:51.276Z,50.39
2018-07-01T03:06:51.063Z,50.20
2018-07-01T03:07:51.311Z,50.01
2018-07-01T03:08:51.315Z,50.58
2018-07-01T03:09:51.319Z,50.39
2018-07-01T03:10:51.313Z,50.01
2018-07-01T03:11:50.727Z,50.39
2018-07-01T03:12:50.712Z,50.01
2018-07-01T03:13:51.325Z,50.68
2018-07-01T03:14:51.282Z,50.39
2018-07-01T03:15:51.329Z,50.68
2018-07-01T03:16:51.273Z,50.96
2018-07-01T03:17:51.017Z,50.58
2018-07-01T03:18:51.112Z,50.68
2018-07-01T03:19:51.281Z,50.58
2018-07-01T03:20:51.301Z,50.78
2018-07-01T03:21:51.273Z,50.78
2018-07-01T03:22:51.272Z,51.06
2018-07-01T03:23:51.272Z,50.87
2018-07-01T03:24:51.274Z,51.45
2018-07-01T03:25:51.130Z,50.94
2018-07-01T03:26:51.275Z,52.00
2018-07-01T03:27:51.282Z,51.35
2018-07-01T03:28:51.282Z,51.25
2018-07-01T03:29:51.275Z,51.54
2018-07-01T03:30:51.300Z,51.06
2018-07-01T03:31:51.323Z,51.16
2018-07-01T03:32:51.317Z,51.06
2018-07-01T03:33:51.299Z,51.16
2018-07-01T03:34:52.803Z,51.25
2018-07-01T03:35:51.637Z,51.45
2018-07-01T03:36:51.278Z,51.73
2018-07-01T03:37:51.087Z,51.54
2018-07-01T03:38:51.140Z,51.32
2018-07-01T03:39:51.349Z,52.22
2018-07-01T03:40:51.387Z,51.45
2018-07-01T03:41:51.280Z,51.73
2018-07-01T03:42:51.307Z,52.09
2018-07-01T03:43:53.272Z,52.95
2018-07-01T03:44:51.282Z,52.48
2018-07-01T03:45:51.063Z,52.28
2018-07-01T03:46:51.335Z,52.48
2018-07-01T03:47:51.285Z,52.09
2018-07-01T03:48:51.059Z,51.71
2018-07-01T03:49:51.123Z,52.00
2018-07-01T03:50:51.388Z,52.28
2018-07-01T03:51:51.324Z,51.73
2018-07-01T03:52:51.121Z,52.31
2018-07-01T03:53:50.745Z,51.81
2018-07-01T03:54:51.128Z,51.90
2018-07-01T03:55:51.091Z,52.31
2018-07-01T03:56:51.128Z,52.22
2018-07-01T03:57:51.332Z,52.95
2018-07-01T03:58:51.126Z,52.76
2018-07-01T03:59:51.342Z,52.57
2018-07-01T04:00:50.735Z,52.22
2018-07-01T04:01:51.135Z,52.22
2018-07-01T04:02:51.340Z,51.93
2018-07-01T04:03:50.800Z,51.71
2018-07-01T04:04:51.329Z,52.40
2018-07-01T04:05:51.327Z,52.38
2018-07-01T04:06:51.365Z,52.19
2018-07-01T04:07:51.290Z,52.48
2018-07-01T04:08:51.319Z,52.31
2018-07-01T04:09:51.389Z,52.02
2018-07-01T04:10:51.095Z,52.12
2018-07-01T04:11:51.301Z,52.40
2018-07-01T04:12:51.132Z,53.24
2018-07-01T04:13:51.093Z,52.76
2018-07-01T04:14:51.338Z,52.57
2018-07-01T04:15:51.312Z,53.15
2018-07-01T04:16:50.736Z,52.67
2018-07-01T04:17:51.314Z,52.95
2018-07-01T04:18:51.294Z,52.95
2018-07-01T04:19:51.336Z,53.08
2018-07-01T04:20:51.129Z,52.95
2018-07-01T04:21:51.298Z,52.95
2018-07-01T04:22:51.299Z,52.38
2018-07-01T04:23:51.314Z,53.05
2018-07-01T04:24:51.311Z,52.98
2018-07-01T04:25:51.343Z,53.05
2018-07-01T04:26:51.300Z,53.15
2018-07-01T04:27:51.296Z,52.67
2018-07-01T04:28:51.105Z,53.08
2018-07-01T04:29:51.293Z,53.17
2018-07-01T04:30:51.377Z,53.17
2018-07-01T04:31:51.303Z,52.79
2018-07-01T04:32:51.349Z,52.86
2018-07-01T04:33:51.299Z,53.05
2018-07-01T04:34:51.348Z,53.34
2018-07-01T04:35:51.347Z,52.95
2018-07-01T04:36:51.032Z,53.24
2018-07-01T04:37:51.288Z,53.34
2018-07-01T04:38:51.351Z,53.24
2018-07-01T04:39:51.314Z,53.53
2018-07-01T04:40:51.299Z,53.63
2018-07-01T04:41:51.215Z,52.86
2018-07-01T04:42:51.345Z,53.53
2018-07-01T04:43:51.128Z,53.63
2018-07-01T04:44:51.316Z,53.24
2018-07-01T04:45:51.352Z,53.08
2018-07-01T04:46:51.128Z,52.79
2018-07-01T04:47:51.334Z,53.17
2018-07-01T04:48:51.352Z,52.95
2018-07-01T04:49:51.368Z,53.15
2018-07-01T04:50:50.682Z,53.15
2018-07-01T04:51:51.298Z,53.27
2018-07-01T04:52:51.356Z,53.46
2018-07-01T04:53:51.246Z,53.46
2018-07-01T04:54:51.356Z,53.08
2018-07-01T04:55:50.619Z,52.79
2018-07-01T04:56:51.332Z,52.98
2018-07-01T04:57:51.294Z,53.15
2018-07-01T04:58:50.796Z,53.34
2018-07-01T04:59:50.801Z,53.36
2018-07-01T05:00:51.173Z,53.17
2018-07-01T05:01:51.374Z,53.36
2018-07-01T05:02:51.310Z,52.79
2018-07-01T05:03:51.353Z,52.98
2018-07-01T05:04:50.850Z,53.08
2018-07-01T05:05:52.862Z,53.17
2018-07-01T05:06:51.304Z,52.89
2018-07-01T05:07:51.313Z,52.89
2018-07-01T05:08:51.094Z,52.69
2018-07-01T05:09:51.142Z,52.89
2018-07-01T05:10:51.312Z,52.89
2018-07-01T05:11:51.358Z,52.98
2018-07-01T05:12:51.352Z,52.79
2018-07-01T05:13:51.348Z,52.98
2018-07-01T05:14:51.317Z,53.08
2018-07-01T05:15:51.306Z,53.17
2018-07-01T05:16:51.354Z,53.08
2018-07-01T05:17:51.364Z,52.89
2018-07-01T05:18:51.311Z,52.91
2018-07-01T05:19:51.355Z,53.01
2018-07-01T05:20:51.354Z,53.11
2018-07-01T05:21:51.366Z,52.53
2018-07-01T05:22:51.353Z,52.14
2018-07-01T05:23:51.315Z,52.14
2018-07-01T05:24:51.366Z,52.24
2018-07-01T05:25:51.385Z,52.14
2018-07-01T05:26:51.112Z,52.05
2018-07-01T05:27:50.816Z,52.05
2018-07-01T05:28:51.377Z,52.53
2018-07-01T05:29:51.318Z,52.43
2018-07-01T05:30:51.359Z,52.34
2018-07-01T05:31:50.641Z,51.88
2018-07-01T05:32:51.314Z,51.50
2018-07-01T05:33:51.355Z,52.14
2018-07-01T05:34:51.373Z,52.05
2018-07-01T05:35:51.326Z,51.88
2018-07-01T05:36:50.927Z,51.50
2018-07-01T05:37:51.373Z,51.50
2018-07-01T05:38:51.372Z,50.82
2018-07-01T05:39:51.339Z,51.79
2018-07-01T05:40:51.360Z,51.69
2018-07-01T05:41:51.358Z,51.79
2018-07-01T05:42:51.374Z,51.59
2018-07-01T05:43:51.365Z,51.40
2018-07-01T05:44:51.343Z,51.31
2018-07-01T05:45:51.379Z,51.40
2018-07-01T05:46:51.393Z,51.02
2018-07-01T05:47:51.392Z,50.73
2018-07-01T05:48:51.121Z,51.11
2018-07-01T05:49:50.843Z,50.56
2018-07-01T05:50:51.363Z,50.56
2018-07-01T05:51:51.369Z,50.63
2018-07-01T05:52:51.113Z,50.92
2018-07-01T05:53:51.318Z,50.34
2018-07-01T05:54:50.888Z,50.15
2018-07-01T05:55:51.371Z,49.79
2018-07-01T05:56:50.890Z,49.96
2018-07-01T05:57:51.392Z,49.89
2018-07-01T05:58:53.284Z,49.89
2018-07-01T05:59:51.372Z,50.27
2018-07-01T06:00:51.329Z,50.08
2018-07-01T06:01:50.881Z,50.18
2018-07-01T06:02:51.369Z,50.27
2018-07-01T06:03:51.428Z,49.60
2018-07-01T06:04:50.904Z,49.60
2018-07-01T06:05:51.327Z,50.27
2018-07-01T06:06:51.368Z,50.27
2018-07-01T06:07:51.390Z,50.37
2018-07-01T06:08:50.896Z,49.89
2018-07-01T06:09:51.377Z,50.37
2018-07-01T06:10:51.055Z,49.79
2018-07-01T06:12:05.114Z,49.60
2018-07-01T06:12:51.120Z,49.51
2018-07-01T06:13:51.162Z,49.60
2018-07-01T06:14:51.181Z,49.51
2018-07-01T06:15:52.372Z,49.24
2018-07-01T06:16:51.461Z,49.33
2018-07-01T06:17:50.849Z,49.82
2018-07-01T06:18:51.382Z,49.05
2018-07-01T06:19:51.347Z,48.95
2018-07-01T06:20:51.385Z,49.33
2018-07-01T06:21:51.379Z,49.33
2018-07-01T06:22:51.486Z,49.05
2018-07-01T06:23:51.330Z,49.72
2018-07-01T06:24:51.138Z,49.05
2018-07-01T06:25:50.669Z,49.05
2018-07-01T06:26:51.334Z,48.85
2018-07-01T06:27:51.695Z,48.47
2018-07-01T06:28:51.109Z,47.99
2018-07-01T06:29:51.210Z,48.28
2018-07-01T06:30:51.375Z,48.08
2018-07-01T06:31:51.650Z,48.85
2018-07-01T06:32:51.432Z,48.79
2018-07-01T06:33:51.343Z,48.59
2018-07-01T06:34:50.891Z,48.21
2018-07-01T06:35:51.405Z,47.72
2018-07-01T06:36:51.395Z,47.44
2018-07-01T06:37:51.073Z,46.67
2018-07-01T06:38:50.837Z,46.67
2018-07-01T06:39:51.390Z,46.57
2018-07-01T06:40:51.385Z,46.95
2018-07-01T06:41:51.451Z,46.74
2018-07-01T06:42:50.885Z,46.77
2018-07-01T06:43:53.376Z,46.67
2018-07-01T06:44:51.343Z,45.90
2018-07-01T06:45:51.343Z,45.99
2018-07-01T06:46:51.344Z,45.99
2018-07-01T06:47:50.639Z,45.70
2018-07-01T06:48:51.699Z,46.09
2018-07-01T06:49:50.858Z,45.70
2018-07-01T06:50:51.389Z,45.90
2018-07-01T06:51:51.430Z,45.61
2018-07-01T06:52:51.388Z,45.83
2018-07-01T06:53:52.978Z,45.15
2018-07-01T06:54:51.214Z,44.93
2018-07-01T06:55:51.346Z,44.65
2018-07-01T06:56:50.911Z,45.15
2018-07-01T06:57:51.343Z,44.96
2018-07-01T06:58:51.364Z,44.86
2018-07-01T06:59:51.389Z,44.86
2018-07-01T07:00:51.384Z,44.57
2018-07-01T07:01:51.389Z,44.86
2018-07-01T07:02:51.401Z,44.76
2018-07-01T07:03:51.682Z,44.48
2018-07-01T07:04:53.004Z,44.76
2018-07-01T07:05:51.424Z,44.28
2018-07-01T07:06:51.400Z,43.80
2018-07-01T07:07:51.434Z,43.41
2018-07-01T07:08:51.389Z,43.23
2018-07-01T07:09:50.869Z,43.23
2018-07-01T07:10:51.208Z,43.24
2018-07-01T07:11:51.637Z,43.44
2018-07-01T07:12:51.441Z,43.24
2018-07-01T07:13:51.215Z,43.15
2018-07-01T07:14:51.419Z,42.09
2018-07-01T07:15:51.841Z,41.71
2018-07-01T07:16:51.446Z,41.22
2018-07-01T07:17:51.377Z,40.84
2018-07-01T07:18:51.283Z,40.55
2018-07-01T07:19:51.404Z,40.45
2018-07-01T07:20:51.334Z,39.87
2018-07-01T07:21:51.477Z,39.49
2018-07-01T07:22:51.669Z,39.01
2018-07-01T07:23:51.400Z,38.53
2018-07-01T07:24:51.602Z,38.53
2018-07-01T07:25:51.400Z,38.33
2018-07-01T07:26:51.193Z,38.43
2018-07-01T07:27:51.124Z,38.14
2018-07-01T07:28:50.855Z,37.77
2018-07-01T07:29:51.403Z,37.58
2018-07-01T07:30:50.901Z,37.19
2018-07-01T07:31:51.451Z,37.10
2018-07-01T07:32:51.118Z,37.01
2018-07-01T07:33:50.858Z,37.19
2018-07-01T07:34:51.411Z,37.87
2018-07-01T07:35:51.403Z,37.87
2018-07-01T07:36:51.373Z,37.58
2018-07-01T07:37:51.426Z,37.58
2018-07-01T07:38:50.908Z,37.58
2018-07-01T07:39:51.397Z,37.58
2018-07-01T07:40:51.227Z,37.39
2018-07-01T07:41:51.408Z,37.39
2018-07-01T07:42:51.408Z,37.58
2018-07-01T07:43:51.411Z,37.58
2018-07-01T07:44:50.707Z,37.19
2018-07-01T07:45:51.425Z,36.81
2018-07-01T07:46:51.079Z,36.91
2018-07-01T07:47:51.399Z,37.01
2018-07-01T07:48:51.415Z,36.52
2018-07-01T07:49:51.363Z,35.94
2018-07-01T07:50:51.411Z,35.94
2018-07-01T07:51:51.373Z,36.13
2018-07-01T07:52:52.971Z,36.43
2018-07-01T07:53:51.455Z,36.52
2018-07-01T07:54:51.417Z,36.81
2018-07-01T07:55:51.447Z,36.33
2018-07-01T07:56:51.428Z,36.52
2018-07-01T07:57:50.876Z,36.81
2018-07-01T07:58:51.459Z,36.61
2018-07-01T07:59:50.867Z,37.01
2018-07-01T08:00:51.415Z,37.48
2018-07-01T08:01:51.408Z,36.61
2018-07-01T08:02:51.418Z,36.43
2018-07-01T08:03:51.117Z,36.81
2018-07-01T08:04:51.747Z,36.04
2018-07-01T08:05:51.919Z,36.04
2018-07-01T08:06:50.789Z,36.43
2018-07-01T08:07:51.212Z,36.44
2018-07-01T08:08:51.417Z,36.33
2018-07-01T08:09:51.417Z,36.71
2018-07-01T08:10:51.730Z,37.12
2018-07-01T08:11:51.614Z,37.12
2018-07-01T08:12:51.394Z,36.93
2018-07-01T08:13:51.728Z,36.15
2018-07-01T08:14:51.434Z,35.67
2018-07-01T08:15:51.372Z,35.48
2018-07-01T08:16:51.384Z,35.28
2018-07-01T08:17:51.368Z,34.80
2018-07-01T08:18:51.193Z,34.70
2018-07-01T08:19:51.183Z,34.80
2018-07-01T08:20:51.375Z,35.10
2018-07-01T08:21:50.978Z,35.48
2018-07-01T08:22:51.278Z,34.44
2018-07-01T08:23:50.870Z,34.52
2018-07-01T08:24:51.435Z,34.44
2018-07-01T08:25:51.492Z,34.61
2018-07-01T08:26:51.425Z,34.53
2018-07-01T08:27:51.165Z,34.34
2018-07-01T08:28:51.450Z,34.53
2018-07-01T08:29:51.423Z,34.13
2018-07-01T08:30:50.733Z,34.61
2018-07-01T08:31:51.440Z,34.61
2018-07-01T08:32:51.348Z,34.32
2018-07-01T08:33:51.503Z,34.61
2018-07-01T08:34:51.439Z,34.42
2018-07-01T08:35:51.383Z,34.61
2018-07-01T08:36:51.403Z,34.82
2018-07-01T08:37:51.254Z,34.72
2018-07-01T08:38:51.448Z,34.63
2018-07-01T08:39:51.443Z,33.57
2018-07-01T08:40:51.485Z,33.86
2018-07-01T08:41:51.423Z,33.95
2018-07-01T08:42:51.432Z,33.95
2018-07-01T08:43:51.434Z,33.95
2018-07-01T08:44:50.885Z,33.76
2018-07-01T08:45:51.781Z,33.86
2018-07-01T08:46:51.724Z,33.58
2018-07-01T08:47:51.434Z,33.48
2018-07-01T08:48:51.449Z,33.28
2018-07-01T08:49:51.384Z,33.47
2018-07-01T08:50:51.408Z,33.47
2018-07-01T08:51:51.450Z,33.66
2018-07-01T08:53:26.884Z,33.76
2018-07-01T08:53:49.776Z,33.37
2018-07-01T08:54:51.518Z,33.47
2018-07-01T08:55:51.432Z,33.47
2018-07-01T08:56:51.153Z,33.57
2018-07-01T08:57:51.446Z,33.66
2018-07-01T08:58:51.408Z,33.95
2018-07-01T08:59:51.741Z,34.05
2018-07-01T09:00:50.928Z,34.26
2018-07-01T09:01:51.442Z,34.06
2018-07-01T09:02:51.441Z,34.45
2018-07-01T09:03:51.453Z,33.58
2018-07-01T09:04:51.410Z,33.68
2018-07-01T09:05:51.197Z,33.87
2018-07-01T09:06:51.438Z,33.39
2018-07-01T09:07:51.438Z,33.48
2018-07-01T09:08:51.476Z,33.58
2018-07-01T09:09:51.454Z,33.68
2018-07-01T09:10:51.509Z,32.81
2018-07-01T09:11:51.369Z,32.44
2018-07-01T09:12:51.441Z,32.23
2018-07-01T09:13:51.413Z,31.94
2018-07-01T09:14:51.469Z,32.04
2018-07-01T09:15:51.432Z,32.24
2018-07-01T09:16:51.516Z,31.94
2018-07-01T09:17:51.256Z,31.85
2018-07-01T09:18:51.416Z,31.94
2018-07-01T09:19:53.019Z,31.85
2018-07-01T09:20:51.473Z,31.56
2018-07-01T09:21:51.468Z,31.56
2018-07-01T09:22:51.249Z,31.57
2018-07-01T09:23:51.451Z,30.99
2018-07-01T09:24:51.448Z,31.09
2018-07-01T09:25:53.789Z,30.99
2018-07-01T09:26:51.284Z,30.80
2018-07-01T09:27:50.996Z,31.18
2018-07-01T09:28:51.498Z,31.57
2018-07-01T09:29:51.547Z,31.57
2018-07-01T09:30:51.740Z,31.28
2018-07-01T09:31:51.403Z,31.09
2018-07-01T09:32:51.451Z,30.70
2018-07-01T09:33:51.176Z,30.22
2018-07-01T09:34:51.400Z,30.70
2018-07-01T09:35:51.452Z,30.90
2018-07-01T09:36:51.279Z,30.51
2018-07-01T09:37:51.872Z,30.70
2018-07-01T09:38:51.324Z,30.32
2018-07-01T09:39:51.471Z,30.70
2018-07-01T09:40:51.459Z,30.41
2018-07-01T09:41:51.468Z,30.51
2018-07-01T09:42:51.450Z,30.70
2018-07-01T09:43:51.881Z,30.41
2018-07-01T09:44:51.463Z,30.22
2018-07-01T09:45:51.282Z,30.32
2018-07-01T09:46:51.479Z,30.22
2018-07-01T09:47:51.281Z,30.82
2018-07-01T09:48:51.259Z,30.52
2018-07-01T09:49:51.444Z,30.70
2018-07-01T09:50:51.429Z,31.10
2018-07-01T09:51:51.222Z,30.52
2018-07-01T09:52:51.458Z,30.72
2018-07-01T09:53:51.406Z,30.43
2018-07-01T09:54:51.777Z,30.72
2018-07-01T09:55:52.023Z,31.10
2018-07-01T09:56:51.940Z,31.10
2018-07-01T09:57:50.907Z,31.01
2018-07-01T09:58:49.804Z,30.82
2018-07-01T09:59:51.461Z,30.33
2018-07-01T10:00:51.655Z,30.43
2018-07-01T10:01:51.373Z,30.72
2018-07-01T10:02:51.502Z,30.52
2018-07-01T10:03:51.461Z,30.24
2018-07-01T10:04:51.459Z,30.91
2018-07-01T10:05:51.273Z,30.52
2018-07-01T10:06:51.414Z,30.43
2018-07-01T10:07:51.731Z,30.62
2018-07-01T10:08:51.415Z,29.94
2018-07-01T10:09:51.513Z,29.46
2018-07-01T10:10:51.776Z,29.66
2018-07-01T10:11:51.476Z,29.75
2018-07-01T10:12:51.523Z,30.14
2018-07-01T10:13:51.472Z,29.75
2018-07-01T10:14:51.043Z,29.17
2018-07-01T10:15:51.773Z,29.17
2018-07-01T10:16:51.392Z,29.46
2018-07-01T10:17:51.791Z,29.56
2018-07-01T10:18:51.477Z,29.46
2018-07-01T10:19:51.818Z,29.08
2018-07-01T10:20:51.802Z,29.08
2018-07-01T10:21:51.569Z,29.36
2018-07-01T10:22:51.516Z,29.56
2018-07-01T10:23:51.418Z,29.85
2018-07-01T10:24:51.907Z,29.47
2018-07-01T10:25:51.770Z,29.36
2018-07-01T10:26:50.919Z,29.56
2018-07-01T10:27:51.482Z,29.77
2018-07-01T10:28:51.278Z,29.77
2018-07-01T10:29:51.474Z,29.77
2018-07-01T10:30:51.470Z,29.47
2018-07-01T10:31:51.500Z,29.38
2018-07-01T10:32:51.151Z,29.67
2018-07-01T10:33:51.476Z,29.57
2018-07-01T10:34:51.471Z,29.78
2018-07-01T10:35:51.423Z,30.17
2018-07-01T10:36:51.479Z,29.78
2018-07-01T10:37:51.467Z,29.49
2018-07-01T10:38:51.517Z,29.39
2018-07-01T10:39:51.461Z,29.69
2018-07-01T10:40:51.473Z,29.49
2018-07-01T10:41:49.910Z,29.59
2018-07-01T10:42:53.478Z,29.19
2018-07-01T10:43:51.429Z,29.59
2018-07-01T10:44:51.487Z,29.78
2018-07-01T10:45:51.926Z,29.97
2018-07-01T10:46:51.856Z,29.41
2018-07-01T10:48:11.946Z,29.32
2018-07-01T10:48:51.527Z,29.41
2018-07-01T10:49:51.292Z,28.62
2018-07-01T10:50:51.892Z,28.81
2018-07-01T10:51:50.977Z,28.54
2018-07-01T10:52:51.821Z,28.72
2018-07-01T10:53:51.427Z,28.73
2018-07-01T10:54:51.537Z,28.73
2018-07-01T10:55:51.448Z,28.25
2018-07-01T10:56:51.707Z,27.86
2018-07-01T10:57:51.964Z,27.76
2018-07-01T10:58:51.449Z,27.57
2018-07-01T10:59:51.254Z,27.96
2018-07-01T11:00:51.497Z,28.05
2018-07-01T11:01:51.957Z,27.67
2018-07-01T11:02:51.729Z,27.96
2018-07-01T11:03:51.666Z,28.05
2018-07-01T11:04:53.523Z,27.47
2018-07-01T11:05:51.555Z,27.37
2018-07-01T11:06:53.052Z,27.47
2018-07-01T11:07:53.119Z,27.47
2018-07-01T11:08:51.800Z,27.37
2018-07-01T11:09:50.943Z,27.67
2018-07-01T11:10:51.511Z,27.67
2018-07-01T11:11:51.444Z,27.96
2018-07-01T11:12:51.464Z,28.15
2018-07-01T11:13:51.445Z,28.25
2018-07-01T11:14:51.469Z,28.25
2018-07-01T11:15:51.696Z,28.34
2018-07-01T11:16:52.143Z,28.15
2018-07-01T11:17:51.801Z,28.36
2018-07-01T11:18:50.111Z,27.97
2018-07-01T11:19:51.993Z,27.78
2018-07-01T11:20:51.798Z,28.45
2018-07-01T11:21:51.881Z,28.26
2018-07-01T11:22:51.488Z,28.36
2018-07-01T11:23:51.448Z,28.47
2018-07-01T11:24:51.006Z,28.17
2018-07-01T11:25:51.453Z,27.98
2018-07-01T11:26:51.610Z,28.08
2018-07-01T11:27:51.824Z,27.58
2018-07-01T11:28:51.462Z,27.78
2018-07-01T11:29:52.013Z,28.17
2018-07-01T11:30:51.996Z,27.78
2018-07-01T11:31:53.448Z,27.97
2018-07-01T11:32:51.712Z,27.78
2018-07-01T11:33:51.822Z,28.08
2018-07-01T11:34:51.881Z,27.98
2018-07-01T11:35:52.286Z,28.18
2018-07-01T11:36:51.517Z,27.60
2018-07-01T11:37:51.818Z,27.51
2018-07-01T11:38:53.950Z,27.03
2018-07-01T11:39:51.979Z,27.22
2018-07-01T11:40:51.994Z,26.92
2018-07-01T11:41:51.804Z,27.03
2018-07-01T11:42:51.814Z,27.03
2018-07-01T11:43:52.006Z,26.74
2018-07-01T11:44:51.494Z,26.64
2018-07-01T11:45:51.506Z,26.56
2018-07-01T11:46:52.003Z,26.56
2018-07-01T11:47:51.967Z,26.35
2018-07-01T11:48:51.283Z,26.64
2018-07-01T11:49:53.559Z,26.35
2018-07-01T11:50:51.728Z,26.35
2018-07-01T11:51:51.472Z,26.46
2018-07-01T11:52:51.955Z,25.38
2018-07-01T11:53:52.026Z,24.99
2018-07-01T11:54:51.469Z,24.91
2018-07-01T11:55:51.996Z,25.29
2018-07-01T11:56:51.999Z,25.77
2018-07-01T11:57:51.522Z,25.40
2018-07-01T11:58:52.030Z,25.31
2018-07-01T11:59:52.026Z,25.30
2018-07-01T12:00:51.818Z,25.70
2018-07-01T12:01:52.119Z,25.12
2018-07-01T12:02:52.064Z,25.02
2018-07-01T12:03:51.540Z,24.43
2018-07-01T12:05:16.210Z,24.62
2018-07-01T12:05:52.323Z,24.72
2018-07-01T12:06:51.766Z,24.52
2018-07-01T12:07:51.965Z,24.73
2018-07-01T12:08:52.057Z,24.54
2018-07-01T12:09:51.518Z,24.05
2018-07-01T12:10:51.525Z,24.24
2018-07-01T12:11:52.049Z,23.76
2018-07-01T12:12:52.036Z,24.16
2018-07-01T12:13:51.517Z,24.24
2018-07-01T12:14:51.965Z,24.24
2018-07-01T12:15:51.519Z,24.24
2018-07-01T12:16:51.757Z,23.58
2018-07-01T12:17:52.465Z,23.87
2018-07-01T12:18:51.809Z,24.15
2018-07-01T12:19:52.390Z,23.85
2018-07-01T12:20:51.974Z,23.76
2018-07-01T12:21:51.537Z,23.76
2018-07-01T12:22:51.974Z,23.58
2018-07-01T12:23:52.024Z,23.57
2018-07-01T12:24:51.500Z,23.88
2018-07-01T12:25:52.088Z,23.39
2018-07-01T12:26:51.682Z,22.91
2018-07-01T12:27:51.523Z,22.80
2018-07-01T12:28:52.005Z,23.28
2018-07-01T12:29:51.977Z,23.58
2018-07-01T12:30:51.539Z,23.19
2018-07-01T12:31:51.813Z,23.49
2018-07-01T12:32:52.074Z,22.82
2018-07-01T12:33:51.299Z,22.82
2018-07-01T12:34:52.060Z,22.83
2018-07-01T12:35:52.044Z,23.22
2018-07-01T12:36:52.199Z,23.42
2018-07-01T12:37:52.033Z,22.83
2018-07-01T12:38:52.044Z,22.74
2018-07-01T12:39:51.827Z,22.63
2018-07-01T12:40:51.808Z,22.52
2018-07-01T12:41:52.073Z,22.52
2018-07-01T12:42:52.067Z,22.72
2018-07-01T12:43:51.985Z,22.72
2018-07-01T12:44:52.026Z,22.34
2018-07-01T12:45:51.987Z,22.35
2018-07-01T12:46:52.039Z,22.07
2018-07-01T12:47:51.813Z,21.88
2018-07-01T12:48:52.087Z,22.26
2018-07-01T12:49:50.450Z,22.27
2018-07-01T12:50:52.051Z,21.58
2018-07-01T12:51:52.053Z,22.16
2018-07-01T12:52:52.043Z,21.98
2018-07-01T12:53:52.088Z,22.09